createdAt,value
2018-09-25T05:51:52.755Z,10.50
2018-09-25T05:54:26.104Z,10.40
2018-09-25T05:57:00.054Z,10.60
2018-09-25T05:59:33.244Z,10.90
2018-09-25T06:02:06.939Z,11.20
2018-09-25T06:04:40.196Z,11.60
2018-09-25T06:07:13.736Z,11.90
2018-09-25T06:09:47.425Z,12.20
2018-09-25T06:12:20.846Z,12.40
2018-09-25T06:14:54.150Z,12.70
2018-09-25T06:17:27.760Z,13.00
2018-09-25T06:20:01.029Z,13.30
2018-09-25T06:22:34.556Z,13.60
2018-09-25T06:25:07.991Z,13.90
2018-09-25T06:27:41.658Z,14.10
2018-09-25T06:30:15.038Z,14.40
2018-09-25T06:32:48.601Z,14.60
2018-09-25T06:35:22.032Z,14.80
2018-09-25T06:37:55.496Z,14.90
2018-09-25T06:40:28.902Z,15.10
2018-09-25T06:43:02.617Z,15.30
2018-09-25T06:45:35.835Z,15.40
2018-09-25T06:48:11.149Z,15.60
2018-09-25T06:50:44.466Z,15.80
2018-09-25T06:53:18.064Z,15.90
2018-09-25T06:55:51.658Z,16.00
2018-09-25T06:58:25.382Z,16.10
2018-09-25T07:00:58.703Z,16.20
2018-09-25T07:03:32.585Z,16.20
2018-09-25T07:06:06.157Z,16.20
2018-09-25T07:08:39.797Z,16.20
2018-09-25T07:11:13.069Z,16.20
2018-09-25T07:13:46.501Z,16.30
2018-09-25T07:16:19.858Z,16.40
2018-09-25T07:18:53.459Z,16.60
2018-09-25T07:21:26.873Z,16.80
2018-09-25T07:24:00.495Z,17.00
2018-09-25T07:26:33.808Z,17.20
2018-09-25T07:29:07.611Z,17.50
2018-09-25T07:31:41.076Z,17.80
2018-09-25T07:34:15.102Z,18.10
2018-09-25T07:36:48.502Z,18.20
2018-09-25T07:39:21.936Z,18.30
2018-09-25T07:41:55.385Z,18.20
2018-09-25T07:44:29.016Z,18.20
2018-09-25T07:47:02.384Z,18.10
2018-09-25T07:49:36.337Z,18.10
2018-09-25T07:52:09.762Z,18.10
2018-09-25T07:54:43.136Z,18.20
2018-09-25T07:57:16.933Z,18.40
2018-09-25T07:59:50.642Z,18.60
2018-09-25T08:02:23.992Z,18.90
2018-09-25T08:04:57.771Z,19.30
2018-09-25T08:07:31.177Z,19.60
2018-09-25T08:10:04.828Z,20.00
2018-09-25T08:12:38.094Z,20.30
2018-09-25T08:15:11.484Z,20.50
2018-09-25T08:17:44.702Z,20.70
2018-09-25T08:20:18.418Z,20.70
2018-09-25T08:22:51.737Z,20.70
2018-09-25T08:25:25.425Z,20.70
2018-09-25T08:27:58.814Z,20.60
2018-09-25T08:30:32.624Z,20.50
2018-09-25T08:33:05.924Z,20.40
2018-09-25T08:35:39.529Z,20.30
2018-09-25T08:38:12.894Z,20.20
2018-09-25T08:40:46.525Z,20.00
2018-09-25T08:43:20.003Z,20.00
2018-09-25T08:45:53.414Z,19.80
2018-09-25T08:48:26.799Z,19.80
2018-09-25T08:51:00.208Z,19.70
2018-09-25T08:53:33.525Z,19.60
2018-09-25T08:56:07.332Z,19.50
2018-09-25T08:58:41.403Z,19.30
2018-09-25T09:01:15.386Z,19.20
2018-09-25T09:03:49.011Z,19.00
2018-09-25T09:06:22.314Z,18.90
2018-09-25T09:08:56.158Z,19.00
2018-09-25T09:11:29.435Z,19.20
2018-09-25T09:14:03.068Z,19.40
2018-09-25T09:16:36.449Z,19.60
2018-09-25T09:19:10.059Z,19.90
2018-09-25T09:21:43.284Z,20.20
2018-09-25T09:24:16.874Z,20.40
2018-09-25T09:26:50.140Z,20.70
2018-09-25T09:29:23.750Z,21.00
2018-09-25T09:31:57.122Z,21.20
2018-09-25T09:34:30.785Z,21.50
2018-09-25T09:37:03.973Z,21.70
2018-09-25T09:39:37.566Z,21.80
2018-09-25T09:42:11.037Z,21.80
2018-09-25T09:44:44.708Z,21.70
2018-09-25T09:47:18.144Z,21.70
2018-09-25T09:49:51.771Z,21.60
2018-09-25T09:52:25.072Z,21.60
2018-09-25T09:54:58.505Z,21.60
2018-09-25T09:57:31.959Z,21.50
2018-09-25T10:00:05.773Z,21.50
2018-09-25T10:02:40.502Z,21.40
2018-09-25T10:05:14.548Z,21.40
2018-09-25T10:07:48.109Z,21.20
2018-09-25T10:10:21.719Z,21.20
2018-09-25T10:12:55.086Z,21.20
2018-09-25T10:15:28.602Z,21.20
2018-09-25T10:18:01.877Z,21.30
2018-09-25T10:20:35.525Z,21.40
2018-09-25T10:23:08.740Z,21.50
2018-09-25T10:25:42.254Z,21.60
2018-09-25T10:28:15.561Z,21.80
2018-09-25T10:30:48.896Z,22.00
2018-09-25T10:33:22.152Z,22.20
2018-09-25T10:35:55.851Z,22.40
2018-09-25T10:38:30.913Z,22.50
2018-09-25T10:41:10.557Z,22.60
2018-09-25T10:43:43.734Z,22.80
2018-09-25T10:46:24.838Z,23.10
2018-09-25T10:48:58.205Z,23.20
2018-09-25T10:51:31.652Z,23.40
2018-09-25T10:54:05.006Z,23.50
2018-09-25T10:56:38.495Z,23.70
2018-09-25T10:59:11.809Z,23.90
2018-09-25T11:01:45.412Z,24.00
2018-09-25T11:04:19.348Z,24.20
2018-09-25T11:06:52.940Z,24.20
2018-09-25T11:09:26.141Z,24.30
2018-09-25T11:11:59.732Z,24.20
2018-09-25T11:14:33.044Z,24.20
2018-09-25T11:17:06.300Z,24.10
2018-09-25T11:19:39.794Z,24.00
2018-09-25T11:22:13.417Z,24.00
2018-09-25T11:24:46.668Z,23.90
2018-09-25T11:27:20.635Z,23.70
2018-09-25T11:29:54.174Z,23.50
2018-09-25T11:32:27.833Z,23.40
2018-09-25T11:35:01.233Z,23.20
2018-09-25T11:37:35.055Z,23.00
2018-09-25T11:40:08.233Z,22.80
2018-09-25T11:42:42.032Z,22.50
2018-09-25T11:45:15.435Z,22.40
2018-09-25T11:47:48.856Z,22.30
2018-09-25T11:50:22.210Z,22.30
2018-09-25T11:52:55.750Z,22.40
2018-09-25T11:55:29.061Z,22.50
2018-09-25T11:58:02.444Z,22.60
2018-09-25T12:00:35.810Z,22.60
2018-09-25T12:03:09.322Z,22.60
2018-09-25T12:05:43.029Z,22.60
2018-09-25T12:08:16.628Z,22.70
2018-09-25T12:10:50.018Z,22.70
2018-09-25T12:13:23.690Z,22.70
2018-09-25T12:15:57.149Z,22.60
2018-09-25T12:18:30.845Z,22.50
2018-09-25T12:21:04.057Z,22.40
2018-09-25T12:23:37.714Z,22.30
2018-09-25T12:26:11.395Z,22.20
2018-09-25T12:28:44.936Z,22.20
2018-09-25T12:31:18.199Z,22.20
2018-09-25T12:33:51.803Z,22.20
2018-09-25T12:36:25.105Z,22.20
2018-09-25T12:38:59.301Z,22.20
2018-09-25T12:41:32.526Z,22.20
2018-09-25T12:44:06.361Z,22.20
2018-09-25T12:46:39.655Z,22.20
2018-09-25T12:49:12.958Z,22.20
2018-09-25T12:51:46.679Z,22.30
2018-09-25T12:54:20.607Z,22.30
2018-09-25T12:56:54.260Z,22.30
2018-09-25T12:59:27.777Z,22.40
2018-09-25T13:02:01.268Z,22.30
2018-09-25T13:04:34.972Z,22.30
2018-09-25T13:07:08.953Z,22.20
2018-09-25T13:09:42.928Z,22.10
2018-09-25T13:12:16.312Z,22.00
2018-09-25T13:14:49.841Z,22.00
2018-09-25T13:17:23.209Z,22.00
2018-09-25T13:19:56.797Z,22.10
2018-09-25T13:22:30.170Z,22.10
2018-09-25T13:25:03.894Z,22.10
2018-09-25T13:27:37.577Z,22.20
2018-09-25T13:30:11.009Z,22.20
2018-09-25T13:32:44.207Z,22.20
2018-09-25T13:35:18.013Z,22.20
2018-09-25T13:37:51.277Z,22.30
2018-09-25T13:40:24.930Z,22.40
2018-09-25T13:42:58.188Z,22.40
2018-09-25T13:45:38.121Z,22.50
2018-09-25T13:48:20.856Z,22.50
2018-09-25T13:50:54.762Z,22.50
2018-09-25T13:53:28.004Z,22.60
2018-09-25T13:56:01.322Z,22.60
2018-09-25T13:58:34.741Z,22.60
2018-09-25T14:01:09.480Z,22.60
2018-09-25T14:03:42.833Z,22.60
2018-09-25T14:06:16.432Z,22.60
2018-09-25T14:08:49.644Z,22.60
2018-09-25T14:11:23.027Z,22.50
2018-09-25T14:13:56.389Z,22.50
2018-09-25T14:16:30.193Z,22.40
2018-09-25T14:19:06.442Z,22.30
2018-09-25T14:24:13.935Z,22.00
2018-09-25T14:26:47.466Z,21.90
2018-09-25T14:29:20.844Z,21.80
2018-09-25T14:31:54.293Z,21.60
2018-09-25T14:34:28.070Z,21.50
2018-09-25T14:37:01.457Z,21.40
2018-09-25T14:39:34.777Z,21.20
2018-09-25T14:42:08.375Z,21.00
2018-09-25T14:44:42.154Z,20.90
2018-09-25T14:47:15.540Z,20.80
2018-09-25T14:49:49.068Z,20.70
2018-09-25T14:52:22.324Z,20.50
2018-09-25T14:54:57.161Z,20.50
2018-09-25T14:57:30.397Z,20.40
2018-09-25T15:00:03.976Z,20.30
2018-09-25T15:02:37.278Z,20.30
2018-09-25T15:05:10.838Z,20.30
2018-09-25T15:07:44.387Z,20.20
2018-09-25T15:10:17.957Z,20.20
2018-09-25T15:12:51.298Z,20.20
2018-09-25T15:15:25.100Z,20.20
2018-09-25T15:17:58.372Z,20.20
2018-09-25T15:20:32.101Z,20.20
2018-09-25T15:23:05.492Z,20.10
2018-09-25T15:25:39.416Z,20.10
2018-09-25T15:28:12.765Z,20.00
2018-09-25T15:30:46.227Z,20.00
2018-09-25T15:33:19.636Z,19.90
2018-09-25T15:35:53.349Z,19.90
2018-09-25T15:38:26.675Z,19.80
2018-09-25T15:42:10.155Z,19.70
2018-09-25T15:44:43.456Z,19.70
2018-09-25T15:47:16.948Z,19.50
2018-09-25T15:49:50.258Z,19.50
2018-09-25T15:52:24.107Z,19.30
2018-09-25T15:54:57.472Z,19.30
2018-09-25T15:57:31.213Z,19.20
2018-09-25T16:00:04.574Z,19.10
2018-09-25T16:02:38.402Z,19.00
2018-09-25T16:05:11.716Z,19.00
2018-09-25T16:07:45.400Z,18.90
2018-09-25T16:10:18.624Z,18.80
2018-09-25T16:12:52.080Z,18.70
2018-09-25T16:15:25.888Z,18.60
2018-09-25T16:17:59.507Z,18.60
2018-09-25T16:20:32.897Z,18.50
2018-09-25T16:23:06.613Z,18.40
2018-09-25T16:25:39.987Z,18.30
2018-09-25T16:28:13.589Z,18.30
2018-09-25T16:30:46.922Z,18.20
2018-09-25T16:33:20.455Z,18.10
2018-09-25T16:35:54.018Z,18.00
2018-09-25T16:38:27.807Z,18.00
2018-09-25T16:41:01.081Z,17.80
2018-09-25T16:49:46.697Z,17.60
2018-09-25T16:52:44.613Z,17.50
2018-09-25T16:55:44.067Z,17.30
2018-09-25T16:58:40.933Z,17.20
2018-09-25T17:01:37.342Z,17.10
2018-09-25T17:04:30.681Z,16.90
2018-09-25T17:07:04.372Z,16.80
2018-09-25T17:09:37.563Z,16.70
2018-09-25T17:12:10.873Z,16.60
2018-09-25T17:14:44.241Z,16.50
2018-09-25T17:17:18.150Z,16.40
2018-09-25T17:19:51.563Z,16.30
2018-09-25T17:22:25.469Z,16.20
2018-09-25T17:24:58.956Z,16.20
2018-09-25T17:27:32.402Z,16.00
2018-09-25T17:30:05.749Z,16.00
2018-09-25T17:32:39.215Z,15.90
2018-09-25T17:35:12.957Z,15.80
2018-09-25T17:37:49.117Z,15.80
2018-09-25T17:40:35.585Z,15.70
2018-09-25T17:43:28.695Z,15.60
2018-09-25T17:46:40.581Z,15.60
2018-09-25T17:49:14.123Z,15.50
2018-09-25T17:51:48.081Z,15.40
2018-09-25T17:54:21.464Z,15.30
2018-09-25T17:56:55.066Z,15.30
2018-09-25T17:59:28.471Z,15.20
2018-09-25T18:02:02.040Z,15.10
2018-09-25T18:04:36.106Z,15.00
2018-09-25T18:07:09.749Z,15.00
2018-09-25T18:09:43.211Z,14.90
2018-09-25T18:12:17.309Z,14.90
2018-09-25T18:14:50.687Z,14.80
2018-09-25T18:17:25.041Z,14.70
2018-09-25T18:19:58.730Z,14.70
2018-09-25T18:22:32.617Z,14.60
2018-09-25T18:25:06.116Z,14.50
2018-09-25T18:27:40.908Z,14.40
2018-09-25T18:30:14.471Z,14.40
2018-09-25T18:32:47.979Z,14.30
2018-09-25T18:35:21.326Z,14.30
2018-09-25T18:37:55.198Z,14.20
2018-09-25T18:40:28.622Z,14.10
2018-09-25T18:43:02.154Z,14.10
2018-09-25T18:45:35.537Z,14.00
2018-09-25T18:48:09.122Z,14.00
2018-09-25T18:50:42.632Z,13.90
2018-09-25T18:53:16.667Z,13.90
2018-09-25T18:55:50.047Z,13.80
2018-09-25T18:58:23.638Z,13.80
2018-09-25T19:00:56.831Z,13.70
2018-09-25T19:03:30.566Z,13.70
2018-09-25T19:06:04.172Z,13.60
2018-09-25T19:08:41.247Z,13.60
2018-09-25T19:11:14.624Z,13.50
2018-09-25T19:13:48.118Z,13.50
2018-09-25T19:16:21.428Z,13.50
2018-09-25T19:18:55.096Z,13.40
2018-09-25T19:21:28.824Z,13.40
2018-09-25T19:24:02.280Z,13.30
2018-09-25T19:26:35.854Z,13.30
2018-09-25T19:29:09.404Z,13.30
2018-09-25T19:31:42.809Z,13.20
2018-09-25T19:34:16.194Z,13.20
2018-09-25T19:36:49.853Z,13.20
2018-09-25T19:39:23.249Z,13.10
2018-09-25T19:41:56.665Z,13.10
2018-09-25T19:44:30.197Z,13.00
2018-09-25T19:47:03.969Z,13.00
2018-09-25T19:49:37.438Z,12.90
2018-09-25T19:52:10.951Z,12.90
2018-09-25T19:54:44.672Z,12.90
2018-09-25T19:57:17.950Z,12.80
2018-09-25T19:59:51.832Z,12.80
2018-09-25T20:02:25.172Z,12.80
2018-09-25T20:04:59.091Z,12.70
2018-09-25T20:07:32.486Z,12.60
2018-09-25T20:10:06.283Z,12.60
2018-09-25T20:12:40.424Z,12.50
2018-09-25T20:15:22.208Z,12.50
2018-09-25T20:17:55.704Z,12.50
2018-09-25T20:20:29.201Z,12.40
2018-09-25T20:23:03.431Z,12.40
2018-09-25T20:25:36.826Z,12.30
2018-09-25T20:28:10.286Z,12.30
2018-09-25T20:30:43.765Z,12.30
2018-09-25T20:33:17.246Z,12.20
2018-09-25T20:35:51.134Z,12.20
2018-09-25T20:38:24.616Z,12.10
2018-09-25T20:40:58.209Z,12.10
2018-09-25T20:43:31.382Z,12.10
2018-09-25T20:46:05.114Z,12.00
2018-09-25T20:48:38.417Z,12.00
2018-09-25T20:51:12.064Z,12.00
2018-09-25T20:53:46.657Z,12.00
2018-09-25T20:56:20.424Z,11.90
2018-09-25T20:58:53.993Z,11.90
2018-09-25T21:01:27.477Z,11.80
2018-09-25T21:04:01.026Z,11.80
2018-09-25T21:06:34.919Z,11.80
2018-09-25T21:09:08.675Z,11.70
2018-09-25T21:11:42.639Z,11.70
2018-09-25T21:14:16.220Z,11.60
2018-09-25T21:16:49.717Z,11.60
2018-09-25T21:19:23.767Z,11.50
2018-09-25T21:21:57.331Z,11.50
2018-09-25T21:24:31.194Z,11.40
2018-09-25T21:27:04.560Z,11.40
2018-09-25T21:29:38.396Z,11.40
2018-09-25T21:32:11.768Z,11.30
2018-09-25T21:34:45.165Z,11.30
2018-09-25T21:37:18.477Z,11.30
2018-09-25T21:39:52.118Z,11.20
2018-09-25T21:42:25.505Z,11.20
2018-09-25T21:44:58.898Z,11.20
2018-09-25T21:47:32.301Z,11.10
2018-09-25T21:50:06.642Z,11.10
2018-09-25T21:52:40.017Z,11.10
2018-09-25T21:55:13.854Z,11.10
2018-09-25T21:57:47.327Z,11.00
2018-09-25T22:00:20.665Z,11.00
2018-09-25T22:02:54.134Z,11.00
2018-09-25T22:05:27.610Z,11.00
2018-09-25T22:08:01.013Z,10.90
2018-09-25T22:10:34.822Z,10.90
2018-09-25T22:13:08.170Z,10.90
2018-09-25T22:15:42.175Z,10.90
2018-09-25T22:18:15.408Z,10.80
2018-09-25T22:20:48.681Z,10.80
2018-09-25T22:23:21.965Z,10.70
2018-09-25T22:25:56.088Z,10.70
2018-09-25T22:28:29.391Z,10.70
2018-09-25T22:31:02.928Z,10.70
2018-09-25T22:33:36.450Z,10.60
2018-09-25T22:36:09.862Z,10.60
2018-09-25T22:38:43.151Z,10.60
2018-09-25T22:41:16.541Z,10.50
2018-09-25T22:43:50.045Z,10.50
2018-09-25T22:46:23.934Z,10.50
2018-09-25T22:48:57.169Z,10.40
2018-09-25T22:51:30.634Z,10.40
2018-09-25T22:54:03.914Z,10.40
2018-09-25T22:56:37.436Z,10.30
2018-09-25T22:59:10.793Z,10.30
2018-09-25T23:01:44.431Z,10.20
2018-09-25T23:04:18.137Z,10.20
2018-09-25T23:06:51.554Z,10.20
2018-09-25T23:09:25.461Z,10.20
2018-09-25T23:11:58.909Z,10.10
2018-09-25T23:14:32.453Z,10.10
2018-09-25T23:17:06.140Z,10.00
2018-09-25T23:19:39.525Z,10.00
2018-09-25T23:22:13.144Z,10.00
2018-09-25T23:24:46.426Z,10.00
2018-09-25T23:27:20.300Z,9.90
2018-09-25T23:29:53.726Z,9.90
2018-09-25T23:32:27.261Z,9.80
2018-09-25T23:35:00.603Z,9.80
2018-09-25T23:37:34.366Z,9.80
2018-09-25T23:40:06.801Z,9.70
2018-09-25T23:42:40.116Z,9.70
2018-09-25T23:45:13.630Z,9.60
2018-09-25T23:47:49.005Z,9.60
2018-09-25T23:50:39.610Z,9.60
2018-09-25T23:53:13.880Z,9.60
2018-09-25T23:55:46.188Z,9.50
2018-09-25T23:58:21.500Z,9.50
